Pemberton, West Virginia
Current Conditions -  °F | °C
As of 4:51 AM on Sunday 23 Nov 2014 (Local Time) from KBKW Reporting Station
Overcast Overcast  
Wind Chill: 37°   Ceiling: 9000
Heat Index: 43°   Visibility: 10mi
Dew Point: 21°   Wind: 10mph
Humidity: 42%   Direction: 140°SE
Pressure: 30.16"   Gusts: NA
Location:  37.7195°N, 81.2375°W
Report Text: KBKW 230951Z AUTO 14009KT 10SM FEW060 FEW080 OVC090 06/M06 A3016 RMK AO2 RAB08E26 SLP217 P0000 T00611061
Loading
Personal Weather Stations






























Interactive Weather Map New forecast layout! Learn more

10-Day Weather Forecast

Advertisements
Track Severe Weather on mobile